createdAt,value
2022-12-09T00:01:24.479Z,-2.07
2022-12-09T00:03:53.060Z,-2.19
2022-12-09T00:06:25.579Z,-2.14
2022-12-09T00:08:55.059Z,-2.11
2022-12-09T00:11:24.765Z,-2.56
2022-12-09T00:13:54.369Z,-2.45
2022-12-09T00:16:24.644Z,-2.34
2022-12-09T00:18:53.964Z,-2.66
2022-12-09T00:21:27.092Z,-2.26
2022-12-09T00:23:57.159Z,-2.48
2022-12-09T00:26:26.991Z,-1.89
2022-12-09T00:28:56.753Z,-2.37
2022-12-09T00:31:26.953Z,-1.87
2022-12-09T00:33:58.903Z,-1.96
2022-12-09T00:36:29.860Z,-1.48
2022-12-09T00:38:59.825Z,-1.84
2022-12-09T00:41:29.409Z,-2.26
2022-12-09T00:43:58.499Z,-2.19
2022-12-09T00:46:27.196Z,-2.32
2022-12-09T00:48:55.812Z,-1.88
2022-12-09T00:51:24.847Z,-1.98
2022-12-09T00:53:56.007Z,-2.40
2022-12-09T00:56:26.625Z,-2.36
2022-12-09T00:58:55.125Z,-1.58
2022-12-09T01:01:23.937Z,-2.22
2022-12-09T01:03:52.802Z,-1.45
2022-12-09T01:06:23.275Z,-1.56
2022-12-09T01:08:52.189Z,-1.90
2022-12-09T01:11:24.396Z,-1.70
2022-12-09T01:13:53.626Z,-2.07
2022-12-09T01:16:25.056Z,-1.50
2022-12-09T01:18:55.424Z,-2.10
2022-12-09T01:21:25.127Z,-1.97
2022-12-09T01:23:54.156Z,-1.81
2022-12-09T01:26:25.777Z,-1.84
2022-12-09T01:28:55.797Z,-2.08
2022-12-09T01:31:26.069Z,-1.92
2022-12-09T01:33:56.890Z,-1.97
2022-12-09T01:36:30.629Z,-1.72
2022-12-09T01:39:00.760Z,-1.67
2022-12-09T01:41:30.850Z,-1.95
2022-12-09T01:44:14.872Z,-2.42
2022-12-09T01:46:43.789Z,-2.01
2022-12-09T01:49:18.384Z,-1.86
2022-12-09T01:51:53.338Z,-1.89
2022-12-09T01:54:22.051Z,-1.44
2022-12-09T01:56:53.079Z,-1.98
2022-12-09T01:59:23.398Z,-1.88
2022-12-09T02:01:55.607Z,-2.24
2022-12-09T02:04:24.556Z,-2.18
2022-12-09T02:06:53.471Z,-1.84
2022-12-09T02:09:22.284Z,-1.93
2022-12-09T02:12:11.341Z,-1.97
2022-12-09T02:14:42.794Z,-1.78
2022-12-09T02:17:27.174Z,-2.16
2022-12-09T02:20:10.007Z,-2.10
2022-12-09T02:22:43.428Z,-1.96
2022-12-09T02:25:23.723Z,-1.81
2022-12-09T02:28:12.946Z,-2.21
2022-12-09T02:30:52.134Z,-2.04
2022-12-09T02:33:39.932Z,-1.56
2022-12-09T02:36:18.181Z,-1.39
2022-12-09T02:38:51.089Z,-1.74
2022-12-09T02:41:24.892Z,-1.55
2022-12-09T02:43:58.465Z,-1.56
2022-12-09T02:46:33.058Z,-1.24
2022-12-09T02:49:01.970Z,-1.18
2022-12-09T02:51:35.326Z,-1.51
2022-12-09T02:54:09.978Z,-1.24
2022-12-09T02:56:42.326Z,-1.58
2022-12-09T02:59:11.333Z,-1.40
2022-12-09T03:01:45.058Z,-1.11
2022-12-09T03:04:19.970Z,-1.50
2022-12-09T03:06:54.364Z,-1.87
2022-12-09T03:09:28.728Z,-1.48
2022-12-09T03:12:00.744Z,-1.85
2022-12-09T03:14:36.114Z,-1.59
2022-12-09T03:17:11.402Z,-1.52
2022-12-09T03:19:45.912Z,-1.69
2022-12-09T03:22:18.514Z,-1.49
2022-12-09T03:24:53.649Z,-1.35
2022-12-09T03:27:33.854Z,-1.32
2022-12-09T03:30:05.585Z,-1.70
2022-12-09T03:32:35.515Z,-1.56
2022-12-09T03:35:10.874Z,-1.35
2022-12-09T03:37:43.653Z,-1.25
2022-12-09T03:40:17.107Z,-1.72
2022-12-09T03:42:51.287Z,-1.36
2022-12-09T03:45:24.940Z,-1.77
2022-12-09T03:47:54.115Z,-1.40
2022-12-09T03:50:25.154Z,-1.67
2022-12-09T03:53:02.022Z,-1.43
2022-12-09T03:55:36.210Z,-1.98
2022-12-09T03:58:07.170Z,-1.57
2022-12-09T04:00:39.211Z,-1.54
2022-12-09T04:03:10.232Z,-1.75
2022-12-09T04:05:39.654Z,-1.69
2022-12-09T04:08:09.264Z,-1.26
2022-12-09T04:10:38.073Z,-1.65
2022-12-09T04:13:06.787Z,-2.20
2022-12-09T04:15:35.325Z,-1.52
2022-12-09T04:18:03.519Z,-1.47
2022-12-09T04:20:32.094Z,-0.99
2022-12-09T04:23:00.492Z,-1.18
2022-12-09T04:25:30.442Z,-1.24
2022-12-09T04:27:59.011Z,-1.11
2022-12-09T04:30:27.484Z,-1.28
2022-12-09T04:32:56.134Z,-0.88
2022-12-09T04:35:24.549Z,-1.05
2022-12-09T04:37:53.452Z,-0.84
2022-12-09T04:40:24.194Z,-0.72
2022-12-09T04:42:54.930Z,-0.97
2022-12-09T04:45:24.014Z,-1.17
2022-12-09T04:47:52.691Z,-0.88
2022-12-09T04:50:21.757Z,-0.81
2022-12-09T04:52:50.220Z,-1.05
2022-12-09T04:55:18.657Z,-0.62
2022-12-09T04:57:47.448Z,-1.35
2022-12-09T05:00:19.573Z,-0.81
2022-12-09T05:02:48.325Z,-0.72
2022-12-09T05:05:20.167Z,-0.91
2022-12-09T05:07:50.171Z,-0.96
2022-12-09T05:10:19.425Z,-1.21
2022-12-09T05:12:48.081Z,-1.46
2022-12-09T05:15:18.473Z,-1.81
2022-12-09T05:17:47.137Z,-1.17
2022-12-09T05:20:16.539Z,-1.49
2022-12-09T05:22:45.191Z,-1.42
2022-12-09T05:25:13.437Z,-0.92
2022-12-09T05:27:41.827Z,-1.17
2022-12-09T05:30:11.184Z,-1.12
2022-12-09T05:32:42.047Z,-1.14
2022-12-09T05:35:13.746Z,-1.13
2022-12-09T05:37:42.345Z,-1.13
2022-12-09T05:40:11.168Z,-0.59
2022-12-09T05:42:42.114Z,-0.96
2022-12-09T05:45:12.443Z,-1.38
2022-12-09T05:47:43.351Z,-1.29
2022-12-09T05:50:12.776Z,-1.15
2022-12-09T05:52:42.222Z,-0.90
2022-12-09T05:55:11.982Z,-1.10
2022-12-09T05:57:42.050Z,-1.04
2022-12-09T06:00:12.048Z,-1.29
2022-12-09T06:02:43.425Z,-1.11
2022-12-09T06:05:14.866Z,-0.83
2022-12-09T06:07:44.204Z,-1.16
2022-12-09T06:10:13.474Z,-0.88
2022-12-09T06:12:43.063Z,-1.03
2022-12-09T06:15:15.797Z,-0.97
2022-12-09T06:17:53.752Z,-0.87
2022-12-09T06:20:22.284Z,-1.04
2022-12-09T06:22:51.367Z,-0.72
2022-12-09T06:25:20.398Z,-0.88
2022-12-09T06:27:49.191Z,-0.63
2022-12-09T06:30:18.506Z,-0.65
2022-12-09T06:32:47.447Z,-0.57
2022-12-09T06:35:18.215Z,-0.35
2022-12-09T06:37:47.649Z,-0.67
2022-12-09T06:40:16.963Z,-0.57
2022-12-09T06:42:45.749Z,-0.65
2022-12-09T06:45:14.715Z,-0.83
2022-12-09T06:47:43.678Z,-0.92
2022-12-09T06:50:13.088Z,-0.71
2022-12-09T06:52:43.549Z,-0.74
2022-12-09T06:55:13.171Z,-0.72
2022-12-09T06:57:42.547Z,-0.99
2022-12-09T07:00:12.753Z,-0.68
2022-12-09T07:02:41.849Z,-0.36
2022-12-09T07:05:12.220Z,-0.68
2022-12-09T07:07:43.433Z,-0.89
2022-12-09T07:10:13.071Z,-0.70
2022-12-09T07:12:41.962Z,-0.78
2022-12-09T07:15:12.133Z,-0.66
2022-12-09T07:17:41.418Z,-0.87
2022-12-09T07:20:11.231Z,-0.87
2022-12-09T07:22:40.256Z,-0.65
2022-12-09T07:25:11.141Z,-0.60
2022-12-09T07:27:41.669Z,-0.62
2022-12-09T07:30:11.087Z,-0.31
2022-12-09T07:32:39.983Z,-0.51
2022-12-09T07:35:10.470Z,-0.25
2022-12-09T07:37:40.531Z,-0.45
2022-12-09T07:40:11.297Z,-0.42
2022-12-09T07:42:41.712Z,-0.40
2022-12-09T07:45:12.914Z,-0.35
2022-12-09T07:47:41.800Z,-0.51
2022-12-09T07:50:11.753Z,-0.38
2022-12-09T07:52:40.353Z,-0.41
2022-12-09T07:55:11.541Z,-0.77
2022-12-09T07:57:41.796Z,-1.19
2022-12-09T08:00:11.526Z,-0.90
2022-12-09T08:02:40.914Z,-0.66
2022-12-09T08:05:11.028Z,-1.02
2022-12-09T08:07:44.112Z,-0.76
2022-12-09T08:10:15.596Z,-0.64
2022-12-09T08:12:44.338Z,-0.43
2022-12-09T08:15:13.694Z,-0.93
2022-12-09T08:17:44.466Z,-0.43
2022-12-09T08:20:15.622Z,-0.17
2022-12-09T08:22:45.008Z,-0.59
2022-12-09T08:25:15.445Z,-0.32
2022-12-09T08:27:44.847Z,-0.44
2022-12-09T08:30:17.597Z,-0.27
2022-12-09T08:32:47.853Z,-0.74
2022-12-09T08:35:16.927Z,-0.39
2022-12-09T08:37:46.542Z,-0.52
2022-12-09T08:40:17.971Z,-0.51
2022-12-09T08:42:46.996Z,-1.04
2022-12-09T08:45:15.684Z,-0.51
2022-12-09T08:47:44.456Z,-0.05
2022-12-09T08:50:13.986Z,-0.20
2022-12-09T08:52:43.730Z,-0.32
2022-12-09T08:55:12.238Z,-0.60
2022-12-09T08:57:42.721Z,-0.74
2022-12-09T09:00:12.447Z,-0.53
2022-12-09T09:02:41.461Z,0.01
2022-12-09T09:05:11.399Z,-0.08
2022-12-09T09:07:41.775Z,-0.54
2022-12-09T09:10:11.851Z,-0.10
2022-12-09T09:12:44.030Z,-0.21
2022-12-09T09:15:14.500Z,-0.22
2022-12-09T09:17:51.115Z,0.02
2022-12-09T09:20:20.896Z,0.28
2022-12-09T09:22:50.013Z,0.34
2022-12-09T09:25:19.102Z,0.10
2022-12-09T09:27:49.129Z,-0.19
2022-12-09T09:30:17.901Z,-0.23
2022-12-09T09:33:11.544Z,-0.31
2022-12-09T09:35:40.950Z,-0.25
2022-12-09T09:38:09.478Z,0.08
2022-12-09T09:40:42.177Z,0.52
2022-12-09T09:43:17.481Z,0.25
2022-12-09T09:45:46.527Z,0.54
2022-12-09T09:48:19.292Z,0.38
2022-12-09T09:50:55.063Z,0.35
2022-12-09T09:53:37.103Z,0.03
2022-12-09T09:56:19.058Z,0.23
2022-12-09T09:58:55.782Z,0.43
2022-12-09T10:01:28.824Z,0.11
2022-12-09T10:04:03.267Z,-0.06
2022-12-09T10:06:39.094Z,-0.08
2022-12-09T10:09:16.082Z,0.14
2022-12-09T10:11:57.435Z,0.25
2022-12-09T10:14:42.966Z,-0.02
2022-12-09T10:17:26.086Z,0.33
2022-12-09T10:19:59.172Z,-0.12
2022-12-09T10:22:32.198Z,0.16
2022-12-09T10:25:09.104Z,0.29
2022-12-09T10:27:43.456Z,0.00
2022-12-09T10:30:16.461Z,0.45
2022-12-09T10:32:45.922Z,0.47
2022-12-09T10:35:16.621Z,0.52
2022-12-09T10:37:45.467Z,0.52
2022-12-09T10:40:24.918Z,0.45
2022-12-09T10:43:13.209Z,0.41
2022-12-09T10:48:39.556Z,0.12
2022-12-09T10:51:14.146Z,-0.23
2022-12-09T10:53:55.931Z,0.07
2022-12-09T10:56:28.436Z,-0.10
2022-12-09T10:59:11.639Z,-0.15
2022-12-09T11:01:52.769Z,0.10
2022-12-09T11:04:29.365Z,0.22
2022-12-09T11:07:01.177Z,-0.14
2022-12-09T11:09:32.237Z,-0.54
2022-12-09T11:12:02.276Z,-0.42
2022-12-09T11:14:35.873Z,-0.05
2022-12-09T11:17:17.679Z,0.05
2022-12-09T11:19:51.451Z,0.25
2022-12-09T11:22:29.069Z,0.18
2022-12-09T11:25:24.921Z,-0.16
2022-12-09T11:27:56.163Z,-0.11
2022-12-09T11:30:27.989Z,0.08
2022-12-09T11:33:07.806Z,-0.19
2022-12-09T11:35:53.702Z,-0.17
2022-12-09T11:38:43.625Z,-0.27
2022-12-09T11:41:35.122Z,-0.33
2022-12-09T11:44:13.904Z,-0.22
2022-12-09T11:46:43.178Z,-0.35
2022-12-09T11:49:17.481Z,-0.36
2022-12-09T11:52:01.573Z,-0.23
2022-12-09T11:54:36.079Z,-0.23
2022-12-09T11:57:07.694Z,-0.24
2022-12-09T11:59:44.089Z,-0.53
2022-12-09T12:02:27.543Z,-0.23
2022-12-09T12:05:02.918Z,0.08
2022-12-09T12:07:39.458Z,0.06
2022-12-09T12:10:18.420Z,-0.34
2022-12-09T12:13:00.391Z,-0.59
2022-12-09T12:15:38.594Z,-0.53
2022-12-09T12:18:14.694Z,-0.77
2022-12-09T12:20:57.156Z,-0.67
2022-12-09T12:23:41.143Z,-0.79
2022-12-09T12:26:18.015Z,-0.61
2022-12-09T12:29:11.223Z,-0.53
2022-12-09T12:32:19.906Z,-0.44
2022-12-09T12:35:01.716Z,-0.68
2022-12-09T12:37:46.026Z,-0.94
2022-12-09T12:40:28.559Z,-0.90
2022-12-09T12:43:29.259Z,-0.66
2022-12-09T12:46:20.474Z,-0.73
2022-12-09T12:49:12.844Z,-0.60
2022-12-09T12:51:54.045Z,-0.65
2022-12-09T12:54:37.288Z,-0.78
2022-12-09T12:57:15.790Z,-0.78
2022-12-09T12:59:50.327Z,-0.64
2022-12-09T13:02:33.806Z,-0.81
2022-12-09T13:05:06.016Z,-0.87
2022-12-09T13:07:40.489Z,-0.89
2022-12-09T13:10:19.044Z,-0.72
2022-12-09T13:12:56.623Z,-0.43
2022-12-09T13:15:32.376Z,-0.68
2022-12-09T13:18:08.033Z,-0.79
2022-12-09T13:20:49.079Z,-0.95
2022-12-09T13:23:23.389Z,-0.88
2022-12-09T13:26:03.069Z,-0.96
2022-12-09T13:28:40.700Z,-1.01
2022-12-09T13:31:10.607Z,-0.69
2022-12-09T13:33:51.257Z,-0.92
2022-12-09T13:36:25.358Z,-0.89
2022-12-09T13:38:53.886Z,-0.77
2022-12-09T13:41:58.584Z,-0.65
2022-12-09T13:44:32.761Z,-0.82
2022-12-09T13:47:28.088Z,-0.85
2022-12-09T13:50:00.368Z,-0.94
2022-12-09T13:52:52.033Z,-0.62
2022-12-09T13:55:33.923Z,-1.05
2022-12-09T13:58:38.581Z,-0.80
2022-12-09T14:01:17.547Z,-0.74
2022-12-09T14:03:58.300Z,-0.59
2022-12-09T14:06:32.515Z,-0.74
2022-12-09T14:09:04.598Z,-0.80
2022-12-09T14:11:48.764Z,-0.83
2022-12-09T14:14:56.299Z,-1.10
2022-12-09T14:17:58.256Z,-0.81
2022-12-09T14:20:34.627Z,-0.90
2022-12-09T14:23:18.105Z,-1.00
2022-12-09T14:26:06.106Z,-0.98
2022-12-09T14:29:01.980Z,-0.83
2022-12-09T14:31:58.505Z,-0.92
2022-12-09T14:34:31.719Z,-0.84
2022-12-09T14:37:35.737Z,-0.98
2022-12-09T14:40:26.545Z,-0.87
2022-12-09T14:43:02.694Z,-0.85
2022-12-09T14:45:38.068Z,-0.96
2022-12-09T14:48:12.043Z,-0.84
2022-12-09T14:50:41.062Z,-0.90
2022-12-09T14:53:21.939Z,-1.00
2022-12-09T14:55:52.613Z,-0.83
2022-12-09T14:58:24.473Z,-1.05
2022-12-09T15:05:18.186Z,-0.85
2022-12-09T15:07:48.655Z,-0.83
2022-12-09T15:10:21.155Z,-0.83
2022-12-09T15:12:53.479Z,-0.82
2022-12-09T15:15:25.082Z,-0.92
2022-12-09T15:17:57.086Z,-1.09
2022-12-09T15:20:29.789Z,-0.82
2022-12-09T15:23:04.614Z,-0.71
2022-12-09T15:25:34.907Z,-0.47
2022-12-09T15:28:07.420Z,-0.98
2022-12-09T15:30:38.085Z,-0.98
2022-12-09T15:33:16.713Z,-0.57
2022-12-09T15:35:53.570Z,-0.57
2022-12-09T15:38:22.444Z,-0.55
2022-12-09T15:41:35.636Z,-0.70
2022-12-09T15:44:52.544Z,-0.98
2022-12-09T15:47:29.483Z,-0.69
2022-12-09T15:50:03.620Z,-0.45
2022-12-09T15:52:40.620Z,-0.61
2022-12-09T15:55:13.549Z,-0.48
2022-12-09T15:57:43.694Z,-0.40
2022-12-09T16:00:13.180Z,-0.60
2022-12-09T16:02:46.504Z,-0.36
2022-12-09T16:05:15.100Z,-0.38
2022-12-09T16:07:54.102Z,-0.20
2022-12-09T16:10:27.081Z,0.01
2022-12-09T16:13:08.055Z,-0.31
2022-12-09T16:15:46.868Z,-0.19
2022-12-09T16:18:24.561Z,-0.18
2022-12-09T16:21:02.702Z,-0.40
2022-12-09T16:23:31.312Z,-0.29
2022-12-09T16:26:07.028Z,-0.11
2022-12-09T16:28:39.598Z,-0.09
2022-12-09T16:31:19.105Z,0.03
2022-12-09T16:33:51.219Z,-0.26
2022-12-09T16:36:21.786Z,-0.27
2022-12-09T16:39:32.690Z,-0.08
2022-12-09T16:42:03.220Z,-0.14
2022-12-09T16:44:34.645Z,0.02
2022-12-09T16:47:15.068Z,-0.02
2022-12-09T16:49:48.526Z,-0.07
2022-12-09T16:52:19.456Z,0.23
2022-12-09T16:54:50.732Z,0.19
2022-12-09T16:57:20.906Z,0.27
2022-12-09T16:59:51.030Z,0.20
2022-12-09T17:02:25.451Z,-1.41
2022-12-09T17:04:55.583Z,-0.97
2022-12-09T17:07:24.153Z,-0.60
2022-12-09T17:09:52.322Z,0.06
2022-12-09T17:12:20.961Z,-0.05
2022-12-09T17:14:51.595Z,0.09
2022-12-09T17:17:20.101Z,0.02
2022-12-09T17:19:48.570Z,0.06
2022-12-09T17:22:18.310Z,0.06
2022-12-09T17:24:46.750Z,0.17
2022-12-09T17:27:15.242Z,0.16
2022-12-09T17:29:45.668Z,0.53
2022-12-09T17:32:14.478Z,0.25
2022-12-09T17:34:44.000Z,0.06
2022-12-09T17:37:12.759Z,0.35
2022-12-09T17:39:42.574Z,-0.07
2022-12-09T17:42:11.079Z,-0.38
2022-12-09T17:44:39.534Z,-0.46
2022-12-09T17:47:07.929Z,-0.47
2022-12-09T17:49:36.390Z,0.01
2022-12-09T17:52:04.925Z,0.24
2022-12-09T17:55:02.077Z,0.53
2022-12-09T18:01:49.588Z,0.29
2022-12-09T18:04:33.199Z,0.42
2022-12-09T18:07:56.414Z,0.51
2022-12-09T18:15:42.930Z,-0.37
2022-12-09T18:18:15.345Z,-0.20
2022-12-09T18:20:43.989Z,-0.04
2022-12-09T18:23:13.096Z,-0.11
2022-12-09T18:25:47.602Z,-0.09
2022-12-09T18:28:16.162Z,-0.16
2022-12-09T18:30:44.835Z,-0.09
2022-12-09T18:33:39.993Z,0.25
2022-12-09T18:40:29.016Z,-0.43
2022-12-09T18:42:58.133Z,-0.40
2022-12-09T18:45:26.621Z,-0.04
2022-12-09T18:48:46.431Z,0.18
2022-12-09T19:07:32.284Z,0.35
2022-12-09T19:10:01.183Z,-0.06
2022-12-09T19:12:46.936Z,0.27
2022-12-09T19:37:43.679Z,0.21
2022-12-09T19:40:13.813Z,0.08
2022-12-09T19:42:42.767Z,0.08
2022-12-09T19:45:14.389Z,-0.12
2022-12-09T19:47:43.277Z,-0.30
2022-12-09T19:50:12.096Z,-0.39
2022-12-09T19:52:42.570Z,-0.42
2022-12-09T19:55:11.476Z,-0.29
2022-12-09T19:57:39.834Z,-0.20
2022-12-09T20:00:09.886Z,-0.21
2022-12-09T20:02:39.104Z,-0.14
2022-12-09T20:05:08.658Z,0.05
2022-12-09T20:07:38.622Z,0.10
2022-12-09T20:10:11.084Z,0.11
2022-12-09T20:12:40.540Z,0.14
2022-12-09T20:15:12.315Z,0.13
2022-12-09T20:17:40.892Z,0.07
2022-12-09T20:20:10.836Z,-0.10
2022-12-09T20:22:40.267Z,-0.52
2022-12-09T20:25:11.280Z,-0.54
2022-12-09T20:27:40.116Z,-0.39
2022-12-09T20:30:10.255Z,-0.35
2022-12-09T20:32:39.376Z,-0.20
2022-12-09T20:35:09.375Z,-0.37
2022-12-09T20:37:38.043Z,-0.31
2022-12-09T20:40:07.967Z,-0.08
2022-12-09T20:42:38.060Z,-0.16
2022-12-09T20:45:07.723Z,-0.43
2022-12-09T20:47:36.099Z,-0.75
2022-12-09T20:50:06.197Z,-0.59
2022-12-09T20:52:34.881Z,-0.78
2022-12-09T20:55:03.281Z,-0.67
2022-12-09T20:57:32.751Z,-0.81
2022-12-09T21:00:02.702Z,-0.94
2022-12-09T21:02:39.617Z,-0.85
2022-12-09T21:05:09.811Z,-0.64
2022-12-09T21:07:38.407Z,-0.70
2022-12-09T21:10:07.282Z,-0.29
2022-12-09T21:12:36.007Z,-0.37
2022-12-09T21:15:06.046Z,-0.42
2022-12-09T21:17:34.447Z,-0.62
2022-12-09T21:20:02.939Z,-0.76
2022-12-09T21:22:33.513Z,-0.64
2022-12-09T21:25:02.975Z,-0.29
2022-12-09T21:27:31.893Z,-0.53
2022-12-09T21:30:03.051Z,-0.61
2022-12-09T21:32:34.163Z,-0.18
2022-12-09T21:35:02.654Z,-0.13
2022-12-09T21:37:32.121Z,-0.19
2022-12-09T21:40:00.546Z,0.10
2022-12-09T21:42:29.023Z,0.13
2022-12-09T21:44:57.337Z,0.58
2022-12-09T21:47:25.730Z,0.32
2022-12-09T21:49:58.975Z,0.27
2022-12-09T21:52:29.276Z,0.42
2022-12-09T21:55:00.166Z,0.25
2022-12-09T21:57:28.907Z,0.63
2022-12-09T21:59:57.341Z,0.64
2022-12-09T22:02:25.957Z,0.36
2022-12-09T22:04:55.570Z,0.99
2022-12-09T22:07:24.130Z,0.55
2022-12-09T22:09:52.370Z,1.06
2022-12-09T22:12:21.010Z,0.67
2022-12-09T22:14:49.192Z,1.25
2022-12-09T22:17:17.814Z,1.15
2022-12-09T22:19:46.812Z,0.55
2022-12-09T22:22:16.684Z,0.13
2022-12-09T22:24:45.183Z,0.10
2022-12-09T22:27:13.882Z,0.43
2022-12-09T22:29:42.376Z,0.48
2022-12-09T22:32:10.753Z,0.62
2022-12-09T22:34:39.175Z,0.42
2022-12-09T22:37:35.198Z,0.60
2022-12-09T22:39:57.497Z,0.42
2022-12-09T22:42:25.913Z,0.40
2022-12-09T22:44:54.628Z,0.22
2022-12-09T22:47:23.183Z,0.41
2022-12-09T22:49:51.570Z,0.32
2022-12-09T22:52:21.035Z,0.10
2022-12-09T22:54:49.518Z,0.15
2022-12-09T22:57:19.370Z,-0.74
2022-12-09T22:59:47.757Z,-0.21
2022-12-09T23:02:16.235Z,-0.34
2022-12-09T23:04:44.537Z,0.34
2022-12-09T23:07:12.886Z,0.40
2022-12-09T23:09:41.313Z,0.35
2022-12-09T23:12:09.717Z,0.29
2022-12-09T23:14:39.547Z,0.47
2022-12-09T23:17:09.542Z,0.36
2022-12-09T23:19:38.478Z,0.19
2022-12-09T23:22:08.929Z,0.48
2022-12-09T23:24:37.789Z,0.68
2022-12-09T23:27:06.123Z,0.55
2022-12-09T23:29:34.705Z,0.54
2022-12-09T23:32:04.196Z,1.14
2022-12-09T23:34:32.595Z,1.08
2022-12-09T23:37:01.475Z,0.92
2022-12-09T23:39:29.983Z,0.56
2022-12-09T23:41:58.360Z,0.21
2022-12-09T23:44:26.795Z,-0.06
2022-12-09T23:46:55.154Z,-0.19
2022-12-09T23:49:25.019Z,0.28
2022-12-09T23:51:53.516Z,0.49
2022-12-09T23:54:21.946Z,0.74
2022-12-09T23:56:50.961Z,0.58
2022-12-09T23:59:21.487Z,0.73
